Time;durP1;ratioP1;P1;durP2;ratioP2;P2;SDS_P1;SDS_P2;PMS_P1;PMS_P2;Temp;Humidity;BMP_temperature;BMP_pressure;BME280_temperature;BME280_humidity;BME280_pressure;Samples;Min_cycle;Max_cycle;Signal;HPM_P1;HPM_P2
2021/07/18 00:02:07;;;;;;;8.10;5.05;;;;;;;;;;4407116;32;20537;-82
2021/07/18 00:04:36;;;;;;;9.48;5.15;;;;;;;;;;4406638;32;20463;-82
2021/07/18 00:07:01;;;;;;;9.77;5.75;;;;;;;;;;4406747;32;20237;-82
2021/07/18 00:09:26;;;;;;;9.75;5.53;;;;;;;;;;4379817;32;20255;-81
2021/07/18 00:11:52;;;;;;;8.73;5.07;;;;;;;;;;4408795;32;20150;-82
2021/07/18 00:14:17;;;;;;;14.65;6.37;;;;;;;;;;4409058;32;20169;-82
2021/07/18 00:16:43;;;;;;;13.48;6.30;;;;;;;;;;4409089;32;20154;-82
2021/07/18 00:19:09;;;;;;;10.45;5.55;;;;;;;;;;4396740;32;20515;-82
2021/07/18 00:21:54;;;;;;;11.52;6.25;;;;;;;;;;4409042;32;20511;-82
2021/07/18 00:24:23;;;;;;;10.52;6.03;;;;;;;;;;4408472;32;20192;-81
2021/07/18 00:26:48;;;;;;;11.90;6.72;;;;;;;;;;4409344;32;20149;-82
2021/07/18 00:29:14;;;;;;;15.95;7.32;;;;;;;;;;4409103;32;20145;-82
2021/07/18 00:31:39;;;;;;;10.43;5.75;;;;;;;;;;4409055;32;20150;-82
2021/07/18 00:34:04;;;;;;;12.43;7.18;;;;;;;;;;4408566;32;20479;-82
2021/07/18 00:36:31;;;;;;;11.57;5.90;;;;;;;;;;4388685;32;20188;-82
2021/07/18 00:38:57;;;;;;;9.75;5.75;;;;;;;;;;4346706;33;20208;-82
2021/07/18 00:41:23;;;;;;;10.35;6.10;;;;;;;;;;4347125;32;20162;-82
2021/07/18 00:43:52;;;;;;;11.32;6.75;;;;;;;;;;4346502;33;20219;-81
2021/07/18 00:46:17;;;;;;;11.23;6.25;;;;;;;;;;4346669;32;20251;-82
2021/07/18 00:48:43;;;;;;;10.10;5.97;;;;;;;;;;4346216;33;20159;-82
2021/07/18 00:51:08;;;;;;;10.48;6.05;;;;;;;;;;4346770;33;20181;-82
2021/07/18 00:53:34;;;;;;;15.68;8.30;;;;;;;;;;4346930;33;20232;-82
2021/07/18 00:56:00;;;;;;;10.10;6.03;;;;;;;;;;4346563;33;20238;-82
2021/07/18 00:58:32;;;;;;;13.18;5.90;;;;;;;;;;4334243;33;20151;-82
2021/07/18 01:00:58;;;;;;;8.68;6.22;;;;;;;;;;4346640;33;20228;-82
2021/07/18 01:03:28;;;;;;;11.38;5.72;;;;;;;;;;4359898;33;20135;-82
2021/07/18 01:05:54;;;;;;;8.23;5.78;;;;;;;;;;4345882;33;20151;-82
2021/07/18 01:08:23;;;;;;;9.52;5.97;;;;;;;;;;4346274;33;20151;-82
2021/07/18 01:10:52;;;;;;;9.32;5.60;;;;;;;;;;4345981;33;20186;-82
2021/07/18 01:13:17;;;;;;;8.57;5.87;;;;;;;;;;4345958;32;20206;-82
2021/07/18 01:15:43;;;;;;;7.00;5.43;;;;;;;;;;4359488;33;20155;-82
2021/07/18 01:18:09;;;;;;;8.65;5.37;;;;;;;;;;4346012;33;20174;-82
2021/07/18 01:20:35;;;;;;;11.30;5.70;;;;;;;;;;4345742;33;20181;-82
2021/07/18 01:23:00;;;;;;;11.88;5.82;;;;;;;;;;4416130;32;20151;-82
2021/07/18 01:25:26;;;;;;;9.75;6.12;;;;;;;;;;4344992;32;20156;-82
2021/07/18 01:27:51;;;;;;;14.32;7.05;;;;;;;;;;4345962;32;20632;-82
2021/07/18 01:30:17;;;;;;;11.45;6.57;;;;;;;;;;4346122;33;20523;-82
2021/07/18 01:32:42;;;;;;;8.60;5.97;;;;;;;;;;4345584;32;20155;-82
2021/07/18 01:35:18;;;;;;;12.13;7.22;;;;;;;;;;4346050;33;20452;-82
2021/07/18 01:37:43;;;;;;;15.30;6.85;;;;;;;;;;4345276;33;20223;-81
2021/07/18 01:40:10;;;;;;;10.00;5.87;;;;;;;;;;4334131;32;20163;-83
2021/07/18 01:42:36;;;;;;;11.30;6.70;;;;;;;;;;4422923;32;20150;-82
2021/07/18 01:45:01;;;;;;;13.00;7.22;;;;;;;;;;4345876;33;20232;-82
2021/07/18 01:47:32;;;;;;;10.82;6.87;;;;;;;;;;4345518;32;20155;-82
2021/07/18 01:49:57;;;;;;;12.20;6.40;;;;;;;;;;4333960;32;20194;-82
2021/07/18 01:52:22;;;;;;;12.80;6.68;;;;;;;;;;4345635;33;20205;-82
2021/07/18 01:54:48;;;;;;;16.87;8.00;;;;;;;;;;4345913;32;20151;-82
2021/07/18 01:57:15;;;;;;;12.65;7.18;;;;;;;;;;4333392;32;20659;-81
2021/07/18 01:59:40;;;;;;;12.05;6.53;;;;;;;;;;4345727;33;20155;-81
2021/07/18 02:02:06;;;;;;;11.48;6.75;;;;;;;;;;4345596;33;20622;-81
2021/07/18 02:04:32;;;;;;;9.48;6.07;;;;;;;;;;4345122;33;20151;-81
2021/07/18 02:06:57;;;;;;;14.13;7.00;;;;;;;;;;4345699;32;20534;-82
2021/07/18 02:09:23;;;;;;;11.45;6.55;;;;;;;;;;4345158;33;20181;-81
2021/07/18 02:11:48;;;;;;;13.52;6.95;;;;;;;;;;4345302;33;20155;-81
2021/07/18 02:14:13;;;;;;;13.32;7.05;;;;;;;;;;4345397;32;20576;-81
2021/07/18 02:16:39;;;;;;;12.73;6.85;;;;;;;;;;4345167;33;20583;-81
2021/07/18 02:19:05;;;;;;;12.37;6.37;;;;;;;;;;4345175;33;20188;-81
2021/07/18 02:21:36;;;;;;;12.45;6.70;;;;;;;;;;4345342;33;20155;-81
2021/07/18 02:24:01;;;;;;;12.88;5.87;;;;;;;;;;4345837;33;20151;-81
2021/07/18 02:26:28;;;;;;;10.35;6.32;;;;;;;;;;4344679;33;20703;-81
2021/07/18 02:28:53;;;;;;;12.13;7.05;;;;;;;;;;4345172;33;20226;-81
2021/07/18 02:31:20;;;;;;;12.77;6.47;;;;;;;;;;4345018;33;20155;-81
2021/07/18 02:33:45;;;;;;;10.70;6.57;;;;;;;;;;4344879;33;20284;-81
2021/07/18 02:36:10;;;;;;;13.68;6.30;;;;;;;;;;4342920;32;20180;-81
2021/07/18 02:38:36;;;;;;;11.02;6.62;;;;;;;;;;4342283;33;20197;-81
2021/07/18 02:41:01;;;;;;;8.82;6.32;;;;;;;;;;4342833;33;20558;-81
2021/07/18 02:43:27;;;;;;;10.50;6.57;;;;;;;;;;4343106;33;20195;-81
2021/07/18 02:45:53;;;;;;;10.10;6.85;;;;;;;;;;4343790;33;20159;-81
2021/07/18 02:48:20;;;;;;;10.45;6.68;;;;;;;;;;4342825;33;20480;-82
2021/07/18 02:50:45;;;;;;;11.48;6.72;;;;;;;;;;4342278;33;20155;-82
2021/07/18 02:53:11;;;;;;;12.13;6.50;;;;;;;;;;4341779;33;20183;-82
2021/07/18 02:55:38;;;;;;;11.95;6.05;;;;;;;;;;4342108;33;20184;-82
2021/07/18 02:58:04;;;;;;;9.70;5.80;;;;;;;;;;4342157;33;20592;-81
2021/07/18 03:00:29;;;;;;;9.50;6.15;;;;;;;;;;4342804;33;20178;-81
2021/07/18 03:02:54;;;;;;;13.62;6.93;;;;;;;;;;4342285;33;20194;-81
2021/07/18 03:05:20;;;;;;;9.02;6.55;;;;;;;;;;4342783;33;20160;-81
2021/07/18 03:07:46;;;;;;;10.57;6.32;;;;;;;;;;4342138;33;20147;-81
2021/07/18 03:10:14;;;;;;;11.25;6.57;;;;;;;;;;4343514;32;20136;-81
2021/07/18 03:12:43;;;;;;;11.75;6.68;;;;;;;;;;4330279;33;20163;-81
2021/07/18 03:15:10;;;;;;;10.95;6.45;;;;;;;;;;4341975;33;20592;-82
2021/07/18 03:17:35;;;;;;;9.77;6.18;;;;;;;;;;4341925;33;20177;-81
2021/07/18 03:20:02;;;;;;;14.52;8.35;;;;;;;;;;4342364;33;20155;-82
2021/07/18 03:22:28;;;;;;;12.70;6.60;;;;;;;;;;4341877;33;20262;-82
2021/07/18 03:24:53;;;;;;;12.70;7.25;;;;;;;;;;4342206;33;20201;-81
2021/07/18 03:27:18;;;;;;;10.80;6.18;;;;;;;;;;4342603;33;20150;-81
2021/07/18 03:29:44;;;;;;;11.52;6.55;;;;;;;;;;4342332;33;20160;-81
2021/07/18 03:32:09;;;;;;;11.20;7.78;;;;;;;;;;4341940;33;20485;-81
2021/07/18 03:34:34;;;;;;;13.05;6.78;;;;;;;;;;4341914;33;20244;-81
2021/07/18 03:37:00;;;;;;;12.23;6.68;;;;;;;;;;4341548;33;20596;-81
2021/07/18 03:39:25;;;;;;;10.13;6.43;;;;;;;;;;4341885;33;20502;-81
2021/07/18 03:41:51;;;;;;;11.18;6.35;;;;;;;;;;4341960;33;20159;-81
2021/07/18 03:44:16;;;;;;;10.18;6.25;;;;;;;;;;4341408;33;20159;-81
2021/07/18 03:46:49;;;;;;;12.25;7.57;;;;;;;;;;4344082;33;20177;-81
2021/07/18 03:49:16;;;;;;;12.32;7.50;;;;;;;;;;4344358;33;20194;-81
2021/07/18 03:51:47;;;;;;;16.20;7.53;;;;;;;;;;4344869;33;20152;-82
2021/07/18 03:54:13;;;;;;;10.77;7.57;;;;;;;;;;4332331;33;20155;-81
2021/07/18 03:56:38;;;;;;;12.82;7.15;;;;;;;;;;4344181;33;20159;-81
2021/07/18 03:59:04;;;;;;;12.00;6.85;;;;;;;;;;4344531;33;20182;-82
2021/07/18 04:01:29;;;;;;;12.10;7.40;;;;;;;;;;4344675;33;20227;-82
2021/07/18 04:03:55;;;;;;;11.80;7.68;;;;;;;;;;4344696;33;20144;-81
2021/07/18 04:06:20;;;;;;;10.07;6.53;;;;;;;;;;4343870;33;20493;-81
2021/07/18 04:08:45;;;;;;;9.27;5.95;;;;;;;;;;4332302;33;20155;-81
2021/07/18 04:11:14;;;;;;;11.32;6.32;;;;;;;;;;4344427;33;20217;-82
2021/07/18 04:13:39;;;;;;;8.75;5.82;;;;;;;;;;4344388;33;20163;-81
2021/07/18 04:16:05;;;;;;;12.02;6.40;;;;;;;;;;4344206;33;20182;-82
2021/07/18 04:18:31;;;;;;;9.23;5.93;;;;;;;;;;4345548;33;20148;-81
2021/07/18 04:20:57;;;;;;;10.02;6.00;;;;;;;;;;4344037;33;20195;-81
2021/07/18 04:23:22;;;;;;;10.57;6.25;;;;;;;;;;4344226;33;20152;-81
2021/07/18 04:25:48;;;;;;;17.02;7.87;;;;;;;;;;4343441;33;20155;-81
2021/07/18 04:28:13;;;;;;;12.40;6.40;;;;;;;;;;4343963;33;20155;-82
2021/07/18 04:30:39;;;;;;;11.50;7.03;;;;;;;;;;4344289;33;20230;-82
2021/07/18 04:33:05;;;;;;;12.27;7.47;;;;;;;;;;4344282;33;20179;-81
2021/07/18 04:35:30;;;;;;;10.15;6.35;;;;;;;;;;4344016;33;20624;-82
2021/07/18 04:37:56;;;;;;;10.77;7.25;;;;;;;;;;4343788;33;20171;-81
2021/07/18 04:40:21;;;;;;;10.50;6.65;;;;;;;;;;4344024;33;20175;-82
2021/07/18 04:42:46;;;;;;;10.32;6.32;;;;;;;;;;4343803;33;20222;-81
2021/07/18 04:45:12;;;;;;;13.05;6.10;;;;;;;;;;4344077;33;20156;-82
2021/07/18 04:47:50;;;;;;;11.90;6.37;;;;;;;;;;4343682;33;20218;-82
2021/07/18 04:50:16;;;;;;;10.90;5.95;;;;;;;;;;4344476;33;20606;-81
2021/07/18 04:52:42;;;;;;;9.60;6.70;;;;;;;;;;4344019;33;20151;-81
2021/07/18 04:55:07;;;;;;;12.10;6.90;;;;;;;;;;4343792;33;20194;-81
2021/07/18 04:57:33;;;;;;;9.55;6.60;;;;;;;;;;4342937;33;20159;-82
2021/07/18 04:59:58;;;;;;;10.43;6.55;;;;;;;;;;4343938;33;20573;-82
2021/07/18 05:02:23;;;;;;;9.65;6.75;;;;;;;;;;4343878;33;20156;-81
2021/07/18 05:04:49;;;;;;;9.20;6.12;;;;;;;;;;4343460;33;20163;-81
2021/07/18 05:07:14;;;;;;;11.75;7.43;;;;;;;;;;4344139;33;20163;-81
2021/07/18 05:09:39;;;;;;;11.10;6.78;;;;;;;;;;4343846;33;20288;-81
2021/07/18 05:12:06;;;;;;;9.40;6.75;;;;;;;;;;4343490;33;20220;-81
2021/07/18 05:14:31;;;;;;;11.23;6.90;;;;;;;;;;4343771;33;20159;-81
2021/07/18 05:16:56;;;;;;;13.13;7.70;;;;;;;;;;4344001;33;20187;-82
2021/07/18 05:19:25;;;;;;;11.23;6.53;;;;;;;;;;4343949;33;20174;-82
2021/07/18 05:21:50;;;;;;;10.35;6.75;;;;;;;;;;4331357;33;20221;-82
2021/07/18 05:24:19;;;;;;;9.15;6.40;;;;;;;;;;4343170;33;20167;-82
2021/07/18 05:26:46;;;;;;;10.80;6.80;;;;;;;;;;4343345;33;20160;-81
2021/07/18 05:29:21;;;;;;;10.57;6.10;;;;;;;;;;4343506;33;20175;-81
2021/07/18 05:32:04;;;;;;;9.10;6.07;;;;;;;;;;4343425;33;20151;-82
2021/07/18 05:34:32;;;;;;;9.93;6.00;;;;;;;;;;4343668;33;20185;-82
2021/07/18 05:37:10;;;;;;;11.68;6.55;;;;;;;;;;4342941;33;20228;-81
2021/07/18 05:39:35;;;;;;;7.95;5.90;;;;;;;;;;4343431;33;20159;-82
2021/07/18 05:42:01;;;;;;;9.95;5.30;;;;;;;;;;4341673;33;20160;-81
2021/07/18 05:44:26;;;;;;;8.18;5.25;;;;;;;;;;4343020;33;20155;-81
2021/07/18 05:46:57;;;;;;;9.15;5.70;;;;;;;;;;4343402;33;20186;-81
2021/07/18 05:49:55;;;;;;;;;;;;;;;;;;;;;
2021/07/18 05:52:09;;;;;;;7.10;4.70;;;;;;;;;;4339534;32;20213;-82
2021/07/18 05:54:35;;;;;;;7.55;4.65;;;;;;;;;;4343443;33;20580;-82
2021/07/18 05:57:19;;;;;;;6.85;4.07;;;;;;;;;;4343208;33;20183;-82
2021/07/18 05:59:48;;;;;;;7.15;3.70;;;;;;;;;;4343089;33;20172;-82
2021/07/18 06:02:15;;;;;;;6.53;3.47;;;;;;;;;;4343116;33;20194;-82
2021/07/18 06:04:46;;;;;;;5.90;3.08;;;;;;;;;;4345154;33;20452;-82
2021/07/18 06:07:13;;;;;;;8.02;3.58;;;;;;;;;;4342676;33;20243;-82
2021/07/18 06:09:39;;;;;;;6.32;3.58;;;;;;;;;;4344195;33;20144;-82
2021/07/18 06:12:07;;;;;;;5.82;3.20;;;;;;;;;;4342908;33;20151;-82
2021/07/18 06:14:36;;;;;;;4.45;3.28;;;;;;;;;;4343206;33;20277;-82
2021/07/18 06:17:02;;;;;;;10.32;3.20;;;;;;;;;;4344861;33;20147;-82
2021/07/18 06:19:32;;;;;;;5.65;2.85;;;;;;;;;;4342579;32;20217;-82
2021/07/18 06:22:11;;;;;;;6.32;2.80;;;;;;;;;;4330717;33;20220;-81
2021/07/18 06:24:37;;;;;;;5.00;2.85;;;;;;;;;;4343112;33;20200;-81
2021/07/18 06:27:05;;;;;;;7.25;2.97;;;;;;;;;;4342833;33;20509;-81
2021/07/18 06:29:32;;;;;;;5.10;2.85;;;;;;;;;;4343183;33;20159;-81
2021/07/18 06:32:06;;;;;;;4.90;2.80;;;;;;;;;;4342879;33;20195;-81
2021/07/18 06:35:16;;;;;;;7.70;2.80;;;;;;;;;;4343119;33;20158;-81
2021/07/18 06:37:24;;;;;;;6.90;2.33;;;;;;;;;;4356468;32;20179;-81
2021/07/18 06:39:51;;;;;;;7.60;2.53;;;;;;;;;;4357305;32;20148;-82
2021/07/18 06:42:16;;;;;;;5.65;2.53;;;;;;;;;;4357262;32;20204;-81
2021/07/18 06:44:50;;;;;;;4.15;2.70;;;;;;;;;;4357218;33;20155;-82
2021/07/18 06:47:18;;;;;;;3.92;2.75;;;;;;;;;;4345892;32;20238;-82
2021/07/18 06:49:43;;;;;;;5.03;2.62;;;;;;;;;;4342192;32;20156;-81
2021/07/18 06:52:19;;;;;;;;;;;;;;;;;;;;;
2021/07/18 06:54:47;;;;;;;4.82;2.50;;;;;;;;;;4328819;33;20190;-81
2021/07/18 06:57:15;;;;;;;4.07;2.65;;;;;;;;;;4342270;33;20593;-82
2021/07/18 06:59:41;;;;;;;6.62;2.62;;;;;;;;;;4342102;32;20191;-81
2021/07/18 07:02:07;;;;;;;8.40;2.62;;;;;;;;;;4342856;33;20160;-82
2021/07/18 07:05:04;;;;;;;5.68;3.78;;;;;;;;;;4353738;32;20185;-82
2021/07/18 07:14:15;;;;;;;;;;;;;;;;;;;;;
2021/07/18 07:19:59;;;;;;;5.53;2.72;;;;;;;;;;4370060;32;20212;-85
2021/07/18 07:22:27;;;;;;;4.62;2.58;;;;;;;;;;4356143;33;20179;-85
2021/07/18 07:25:06;;;;;;;6.12;2.40;;;;;;;;;;4359123;33;20418;-82
2021/07/18 07:27:31;;;;;;;4.15;2.40;;;;;;;;;;4357120;32;20159;-83
2021/07/18 07:30:32;;;;;;;;;;;;;;;;;;;;;
2021/07/18 07:33:05;;;;;;;3.58;2.30;;;;;;;;;;4353231;33;20220;-82
2021/07/18 07:35:56;;;;;;;5.65;2.30;;;;;;;;;;4355938;32;20217;-82
2021/07/18 07:38:24;;;;;;;4.32;2.10;;;;;;;;;;4335361;32;20160;-81
2021/07/18 07:40:49;;;;;;;5.18;2.35;;;;;;;;;;4340246;32;20479;-81
2021/07/18 07:43:24;;;;;;;7.70;2.72;;;;;;;;;;4339978;33;20160;-81
2021/07/18 07:45:49;;;;;;;3.75;2.03;;;;;;;;;;4343173;33;20131;-82
2021/07/18 07:48:39;;;;;;;5.68;2.35;;;;;;;;;;4343412;33;20202;-82
2021/07/18 07:51:07;;;;;;;3.62;2.10;;;;;;;;;;4343283;32;20224;-81
2021/07/18 07:53:33;;;;;;;4.68;1.92;;;;;;;;;;4329434;32;20465;-81
2021/07/18 07:55:59;;;;;;;1.92;1.50;;;;;;;;;;4329631;33;20495;-81
2021/07/18 07:58:51;;;;;;;4.37;1.85;;;;;;;;;;4330368;32;20461;-80
2021/07/18 08:04:14;;;;;;;3.20;1.80;;;;;;;;;;4343121;33;20155;-81
2021/07/18 08:06:59;;;;;;;4.05;1.92;;;;;;;;;;4329457;33;20168;-80
2021/07/18 08:09:41;;;;;;;4.75;1.90;;;;;;;;;;4331378;33;20592;-81
2021/07/18 08:12:06;;;;;;;3.00;1.67;;;;;;;;;;4342187;32;20204;-82
2021/07/18 08:14:32;;;;;;;4.28;1.90;;;;;;;;;;4343555;33;20152;-82
2021/07/18 08:17:19;;;;;;;4.05;1.80;;;;;;;;;;4327152;32;20244;-82
2021/07/18 08:19:46;;;;;;;3.53;1.50;;;;;;;;;;4325257;32;20175;-81
2021/07/18 08:22:12;;;;;;;2.78;1.80;;;;;;;;;;4329862;32;20187;-82
2021/07/18 08:25:22;;;;;;;2.72;1.60;;;;;;;;;;4329001;33;20199;-81
2021/07/18 08:27:34;;;;;;;2.60;1.52;;;;;;;;;;4337476;32;20194;-82
2021/07/18 08:30:00;;;;;;;4.15;2.03;;;;;;;;;;4340255;33;20174;-83
2021/07/18 08:32:44;;;;;;;;;;;;;;;;;;;;;
2021/07/18 08:35:29;;;;;;;;;;;;;;;;;;;;;
2021/07/18 08:37:55;;;;;;;6.40;1.60;;;;;;;;;;4298405;33;20598;-82
2021/07/18 08:40:42;;;;;;;;;;;;;;;;;;;;;
2021/07/18 08:43:23;;;;;;;2.35;1.50;;;;;;;;;;4356325;33;20159;-85
2021/07/18 08:45:51;;;;;;;4.15;1.73;;;;;;;;;;4345207;32;20205;-82
2021/07/18 08:48:19;;;;;;;6.03;1.55;;;;;;;;;;4328310;32;20542;-81
2021/07/18 08:51:05;;;;;;;4.22;1.50;;;;;;;;;;4316058;33;20163;-81
2021/07/18 08:54:14;;;;;;;3.95;1.60;;;;;;;;;;4320365;32;20261;-81
2021/07/18 08:57:02;;;;;;;3.67;1.45;;;;;;;;;;4327289;32;20498;-81
2021/07/18 08:59:31;;;;;;;3.22;1.50;;;;;;;;;;4336256;32;20190;-82
2021/07/18 09:05:26;;;;;;;2.70;1.50;;;;;;;;;;4298036;33;20167;-80
2021/07/18 09:07:58;;;;;;;5.78;1.77;;;;;;;;;;4299163;33;20572;-82
2021/07/18 09:10:46;;;;;;;7.10;1.70;;;;;;;;;;4297471;33;20164;-80
2021/07/18 09:13:12;;;;;;;5.15;1.55;;;;;;;;;;4294553;33;20180;-81
2021/07/18 09:16:00;;;;;;;2.12;1.50;;;;;;;;;;4307119;33;20226;-81
2021/07/18 09:24:39;;;;;;;3.17;1.50;;;;;;;;;;4374514;32;20621;-82
2021/07/18 09:30:18;;;;;;;5.37;1.70;;;;;;;;;;4389103;32;20169;-81
2021/07/18 09:33:08;;;;;;;2.87;1.80;;;;;;;;;;4376182;32;20185;-82
2021/07/18 09:35:37;;;;;;;7.85;1.52;;;;;;;;;;4353531;32;20166;-81
2021/07/18 09:38:03;;;;;;;4.15;1.90;;;;;;;;;;4345351;32;20195;-82
2021/07/18 09:44:25;;;;;;;3.45;1.70;;;;;;;;;;4373975;32;20189;-82
2021/07/18 09:47:07;;;;;;;5.43;1.60;;;;;;;;;;4353190;32;20166;-80
2021/07/18 09:52:32;;;;;;;3.55;1.58;;;;;;;;;;4361163;32;20174;-80
2021/07/18 09:55:01;;;;;;;3.55;1.45;;;;;;;;;;4345742;32;20155;-80
2021/07/18 09:57:41;;;;;;;2.30;1.35;;;;;;;;;;4334093;32;20271;-81
2021/07/18 10:00:11;;;;;;;2.37;1.50;;;;;;;;;;4346172;32;20163;-81
2021/07/18 10:02:39;;;;;;;3.80;1.52;;;;;;;;;;4359207;32;20143;-81
2021/07/18 10:05:33;;;;;;;4.28;1.40;;;;;;;;;;4359313;32;20208;-81
2021/07/18 10:08:10;;;;;;;8.20;1.73;;;;;;;;;;4348306;33;20166;-80
2021/07/18 10:10:50;;;;;;;2.37;1.50;;;;;;;;;;4357103;33;20139;-80
2021/07/18 10:13:30;;;;;;;3.30;1.58;;;;;;;;;;4344379;32;20160;-81
2021/07/18 10:21:13;;;;;;;3.10;1.62;;;;;;;;;;4359130;33;20170;-82
2021/07/18 10:23:42;;;;;;;3.50;1.30;;;;;;;;;;4344859;33;20271;-81
2021/07/18 10:26:13;;;;;;;3.00;1.85;;;;;;;;;;4358653;32;20189;-81
2021/07/18 10:28:39;;;;;;;2.92;1.48;;;;;;;;;;4358776;32;20215;-81
2021/07/18 10:31:21;;;;;;;2.37;1.55;;;;;;;;;;4357415;33;20209;-81
2021/07/18 10:34:01;;;;;;;3.53;1.90;;;;;;;;;;4364660;32;20253;-81
2021/07/18 10:36:27;;;;;;;2.92;1.30;;;;;;;;;;4349451;32;20179;-81
2021/07/18 10:38:58;;;;;;;3.28;1.45;;;;;;;;;;4353851;32;20201;-80
2021/07/18 10:41:42;;;;;;;1.58;1.42;;;;;;;;;;4356546;32;20503;-80
2021/07/18 10:44:45;;;;;;;2.72;1.58;;;;;;;;;;4419208;32;20219;-81
2021/07/18 10:47:14;;;;;;;4.82;1.83;;;;;;;;;;4382086;32;20274;-80
2021/07/18 10:50:15;;;;;;;5.28;1.90;;;;;;;;;;4405749;32;20190;-81
2021/07/18 10:53:13;;;;;;;2.87;1.70;;;;;;;;;;4324776;33;20167;-81
2021/07/18 10:55:49;;;;;;;3.03;1.73;;;;;;;;;;4341581;33;20250;-81
2021/07/18 11:01:22;;;;;;;3.33;2.00;;;;;;;;;;4343531;33;20189;-81
2021/07/18 11:03:49;;;;;;;3.45;1.60;;;;;;;;;;4340737;33;20584;-81
2021/07/18 11:06:30;;;;;;;2.62;1.60;;;;;;;;;;4330607;33;20181;-80
2021/07/18 11:09:27;;;;;;;4.55;2.00;;;;;;;;;;4342461;33;20206;-81
2021/07/18 11:11:57;;;;;;;3.47;1.85;;;;;;;;;;4378309;32;20197;-81
2021/07/18 11:14:39;;;;;;;2.12;1.50;;;;;;;;;;4342092;33;20190;-81
2021/07/18 11:17:10;;;;;;;3.65;1.52;;;;;;;;;;4343930;32;20167;-81
2021/07/18 11:19:35;;;;;;;3.42;1.42;;;;;;;;;;4329738;32;20238;-82
2021/07/18 11:22:05;;;;;;;4.20;1.60;;;;;;;;;;4342603;33;20159;-82
2021/07/18 11:24:55;;;;;;;3.33;1.60;;;;;;;;;;4342249;32;20190;-82
2021/07/18 11:28:09;;;;;;;;;;;;;;;;;;;;;
2021/07/18 11:30:42;;;;;;;3.20;1.60;;;;;;;;;;4327278;33;20178;-81
2021/07/18 11:36:41;;;;;;;2.83;1.40;;;;;;;;;;4358239;32;20292;-81
2021/07/18 11:39:26;;;;;;;2.53;1.52;;;;;;;;;;4357789;33;20170;-81
2021/07/18 11:41:52;;;;;;;2.22;1.40;;;;;;;;;;4339987;33;20493;-80
2021/07/18 11:44:22;;;;;;;3.08;1.50;;;;;;;;;;4329742;33;20233;-83
2021/07/18 11:46:54;;;;;;;2.47;1.40;;;;;;;;;;4343942;32;20273;-81
2021/07/18 11:49:33;;;;;;;4.72;1.37;;;;;;;;;;4344764;32;20572;-80
2021/07/18 11:52:10;;;;;;;2.60;1.08;;;;;;;;;;4333401;33;20160;-81
2021/07/18 11:54:36;;;;;;;2.45;1.40;;;;;;;;;;4326944;33;20160;-81
2021/07/18 11:57:04;;;;;;;2.85;1.20;;;;;;;;;;4327203;33;20194;-83
2021/07/18 11:59:29;;;;;;;3.20;1.37;;;;;;;;;;4326836;33;20152;-81
2021/07/18 12:02:00;;;;;;;3.05;1.40;;;;;;;;;;4326959;33;20589;-81
2021/07/18 12:04:26;;;;;;;4.60;1.98;;;;;;;;;;4327053;33;20230;-82
2021/07/18 12:07:00;;;;;;;2.30;1.27;;;;;;;;;;4342122;32;20152;-82
2021/07/18 12:09:28;;;;;;;2.83;1.30;;;;;;;;;;4343965;33;20183;-81
2021/07/18 12:11:57;;;;;;;2.55;1.60;;;;;;;;;;4343841;33;20182;-81
2021/07/18 12:14:25;;;;;;;4.10;1.85;;;;;;;;;;4344781;33;20159;-81
2021/07/18 12:16:52;;;;;;;4.22;1.73;;;;;;;;;;4347278;32;20160;-81
2021/07/18 12:19:18;;;;;;;2.90;1.70;;;;;;;;;;4347459;32;20195;-81
2021/07/18 12:21:44;;;;;;;3.85;1.70;;;;;;;;;;4346529;32;20198;-81
2021/07/18 12:24:20;;;;;;;3.22;1.50;;;;;;;;;;4346390;32;20171;-81
2021/07/18 12:27:12;;;;;;;3.08;1.50;;;;;;;;;;4336720;32;20235;-82
2021/07/18 12:29:48;;;;;;;1.80;1.58;;;;;;;;;;4346702;33;20202;-81
2021/07/18 12:32:35;;;;;;;3.22;1.60;;;;;;;;;;4347245;32;20139;-82
2021/07/18 12:35:21;;;;;;;4.35;1.60;;;;;;;;;;4360570;32;20609;-81
2021/07/18 12:38:27;;;;;;;4.45;1.92;;;;;;;;;;4359663;32;20167;-81
2021/07/18 12:41:03;;;;;;;2.80;1.60;;;;;;;;;;4362371;32;20167;-81
2021/07/18 12:44:02;;;;;;;2.42;1.75;;;;;;;;;;4362986;32;20185;-82
2021/07/18 12:46:45;;;;;;;4.03;1.85;;;;;;;;;;4374346;32;20209;-81
2021/07/18 12:49:13;;;;;;;2.92;1.40;;;;;;;;;;4374761;32;20298;-82
2021/07/18 12:51:40;;;;;;;2.80;1.50;;;;;;;;;;4357856;33;20217;-81
2021/07/18 12:54:06;;;;;;;2.97;1.62;;;;;;;;;;4345725;32;20155;-81
2021/07/18 12:56:55;;;;;;;2.47;1.60;;;;;;;;;;4346078;32;20185;-82
2021/07/18 12:59:53;;;;;;;3.17;1.67;;;;;;;;;;4335535;32;20167;-81
2021/07/18 13:02:37;;;;;;;2.70;1.50;;;;;;;;;;4360060;32;20218;-82
2021/07/18 13:05:24;;;;;;;2.58;1.58;;;;;;;;;;4347904;33;20163;-82
2021/07/18 13:07:50;;;;;;;3.37;1.65;;;;;;;;;;4359952;33;20206;-82
2021/07/18 13:10:19;;;;;;;4.00;1.58;;;;;;;;;;4347092;33;20580;-82
2021/07/18 13:12:58;;;;;;;2.03;1.33;;;;;;;;;;4347317;33;20297;-81
2021/07/18 13:15:27;;;;;;;3.45;1.60;;;;;;;;;;4347801;33;20167;-81
2021/07/18 13:18:00;;;;;;;1.95;1.62;;;;;;;;;;4346213;33;20632;-81
2021/07/18 13:20:26;;;;;;;2.90;1.45;;;;;;;;;;4347929;33;20183;-81
2021/07/18 13:22:55;;;;;;;3.00;1.58;;;;;;;;;;4347050;33;20669;-81
2021/07/18 13:25:24;;;;;;;3.60;1.62;;;;;;;;;;4344301;33;20163;-80
2021/07/18 13:27:50;;;;;;;2.53;1.50;;;;;;;;;;4343109;33;20155;-82
2021/07/18 13:30:15;;;;;;;2.25;1.48;;;;;;;;;;4342961;32;20164;-80
2021/07/18 13:32:47;;;;;;;3.67;1.35;;;;;;;;;;4343078;32;20241;-82
2021/07/18 13:35:17;;;;;;;3.95;1.60;;;;;;;;;;4343523;32;20204;-82
2021/07/18 13:38:02;;;;;;;1.98;1.40;;;;;;;;;;4345263;33;20209;-82
2021/07/18 13:44:05;;;;;;;2.30;1.40;;;;;;;;;;4359555;33;20184;-81
2021/07/18 13:46:58;;;;;;;1.77;1.58;;;;;;;;;;4350246;32;20167;-81
2021/07/18 13:49:54;;;;;;;;;;;;;;;;;;;;;
2021/07/18 13:52:43;;;;;;;2.12;1.70;;;;;;;;;;4420402;32;20174;-81
2021/07/18 13:55:39;;;;;;;3.97;1.83;;;;;;;;;;4387095;32;20241;-81
2021/07/18 13:58:05;;;;;;;3.20;1.50;;;;;;;;;;4407048;32;20502;-82
2021/07/18 14:01:15;;;;;;;3.70;2.30;;;;;;;;;;4406753;32;20696;-81
2021/07/18 14:03:40;;;;;;;3.10;1.80;;;;;;;;;;4408231;32;20199;-82
2021/07/18 14:06:07;;;;;;;3.40;1.73;;;;;;;;;;4407470;32;20607;-82
2021/07/18 14:08:39;;;;;;;1.80;1.60;;;;;;;;;;4407234;32;20587;-81
2021/07/18 14:11:17;;;;;;;2.75;1.85;;;;;;;;;;4407575;32;20191;-82
2021/07/18 14:14:14;;;;;;;;;;;;;;;;;;;;;
2021/07/18 14:16:34;;;;;;;2.97;1.92;;;;;;;;;;4418760;32;20212;-81
2021/07/18 14:18:59;;;;;;;2.65;1.90;;;;;;;;;;4406950;32;20176;-82
2021/07/18 14:21:27;;;;;;;2.33;2.12;;;;;;;;;;4348320;32;20162;-82
2021/07/18 14:24:24;;;;;;;;;;;;;;;;;;;;;
2021/07/18 14:26:44;;;;;;;2.33;1.90;;;;;;;;;;4361979;32;20641;-82
2021/07/18 14:29:21;;;;;;;2.60;1.95;;;;;;;;;;4344881;32;20186;-83
2021/07/18 14:31:47;;;;;;;1.98;1.75;;;;;;;;;;4394628;32;20151;-81
2021/07/18 14:34:13;;;;;;;3.65;1.60;;;;;;;;;;4368189;32;20146;-82
2021/07/18 14:36:38;;;;;;;2.12;1.65;;;;;;;;;;4346488;33;20477;-81
2021/07/18 14:39:18;;;;;;;2.55;1.62;;;;;;;;;;4340901;33;20171;-83
2021/07/18 14:41:50;;;;;;;4.37;1.87;;;;;;;;;;4344561;32;20155;-82
2021/07/18 14:47:15;;;;;;;3.10;2.50;;;;;;;;;;4348593;33;20651;-82
2021/07/18 14:53:05;;;;;;;2.28;2.05;;;;;;;;;;4351304;32;20258;-82
2021/07/18 14:55:57;;;;;;;1.95;1.73;;;;;;;;;;4342983;32;20175;-82
2021/07/18 14:58:45;;;;;;;2.42;1.98;;;;;;;;;;4342565;33;20503;-82
2021/07/18 15:01:10;;;;;;;3.20;1.90;;;;;;;;;;4342599;33;20187;-83
2021/07/18 15:03:44;;;;;;;2.75;2.10;;;;;;;;;;4342250;33;20164;-81
2021/07/18 15:06:33;;;;;;;2.45;2.00;;;;;;;;;;4342703;33;20224;-82
2021/07/18 15:09:12;;;;;;;2.37;1.90;;;;;;;;;;4344025;32;20168;-82
2021/07/18 15:15:19;;;;;;;3.10;2.03;;;;;;;;;;4275856;33;20633;-83
2021/07/18 15:18:11;;;;;;;2.80;2.12;;;;;;;;;;4268852;33;20147;-81
2021/07/18 15:20:37;;;;;;;3.60;2.85;;;;;;;;;;4273475;33;20514;-81
2021/07/18 15:23:02;;;;;;;2.85;2.40;;;;;;;;;;4315490;33;20182;-82
2021/07/18 15:26:00;;;;;;;2.15;1.90;;;;;;;;;;4337433;33;20217;-82
2021/07/18 15:28:28;;;;;;;4.20;2.35;;;;;;;;;;4360801;32;20163;-82
2021/07/18 15:30:56;;;;;;;2.67;1.90;;;;;;;;;;4344902;33;20585;-81
2021/07/18 15:36:32;;;;;;;3.42;2.00;;;;;;;;;;4367295;32;20155;-81
2021/07/18 15:38:59;;;;;;;4.55;2.35;;;;;;;;;;4327999;33;20626;-82
2021/07/18 15:41:32;;;;;;;2.78;2.20;;;;;;;;;;4356366;32;20600;-82
2021/07/18 15:44:25;;;;;;;4.00;2.40;;;;;;;;;;4362536;32;20154;-81
2021/07/18 15:47:47;;;;;;;3.08;2.40;;;;;;;;;;4361443;32;20163;-81
2021/07/18 15:50:33;;;;;;;;;;;;;;;;;;;;;
2021/07/18 15:53:29;;;;;;;2.35;2.10;;;;;;;;;;4356298;32;20206;-81
2021/07/18 15:56:34;;;;;;;;;;;;;;;;;;;;;
2021/07/18 15:59:08;;;;;;;3.35;2.08;;;;;;;;;;4348517;32;20155;-81
2021/07/18 16:01:38;;;;;;;3.58;2.00;;;;;;;;;;4362357;32;20588;-81
2021/07/18 16:04:15;;;;;;;3.75;2.30;;;;;;;;;;4349479;32;20185;-81
2021/07/18 16:06:44;;;;;;;2.85;2.05;;;;;;;;;;4361895;32;20166;-82
2021/07/18 16:09:54;;;;;;;2.60;2.37;;;;;;;;;;4361376;32;20189;-81
2021/07/18 16:11:58;;;;;;;4.57;2.08;;;;;;;;;;4377891;32;20174;-82
2021/07/18 16:14:23;;;;;;;2.80;2.47;;;;;;;;;;4361426;32;20189;-83
2021/07/18 16:17:01;;;;;;;4.03;2.30;;;;;;;;;;4361688;32;20255;-82
2021/07/18 16:19:34;;;;;;;2.85;2.35;;;;;;;;;;4361959;32;20201;-83
2021/07/18 16:22:21;;;;;;;3.53;2.17;;;;;;;;;;4342295;32;20488;-82